createdAt,value
2023-03-06T00:00:07.419Z,592.2
2023-03-06T00:01:09.379Z,592.3
2023-03-06T00:02:11.248Z,592.3
2023-03-06T00:03:13.078Z,592.1
2023-03-06T00:04:15.032Z,591.9
2023-03-06T00:05:16.901Z,592.1
2023-03-06T00:06:18.842Z,591.9
2023-03-06T00:07:20.639Z,591.8
2023-03-06T00:08:22.533Z,592.2
2023-03-06T00:09:24.378Z,591.9
2023-03-06T00:10:26.238Z,591.7
2023-03-06T00:11:28.092Z,591.9
2023-03-06T00:12:29.939Z,592
2023-03-06T00:13:31.860Z,592.1
2023-03-06T00:14:33.737Z,592
2023-03-06T00:15:35.481Z,592.1
2023-03-06T00:16:37.588Z,592.4
2023-03-06T00:17:39.511Z,592.4
2023-03-06T00:18:41.349Z,592.5
2023-03-06T00:19:43.199Z,592.3
2023-03-06T00:20:44.969Z,592.7
2023-03-06T00:21:46.798Z,592.7
2023-03-06T00:22:48.689Z,592.8
2023-03-06T00:23:50.605Z,593
2023-03-06T00:24:52.440Z,592.9
2023-03-06T00:25:54.297Z,592.5
2023-03-06T00:26:56.096Z,592.9
2023-03-06T00:27:58.106Z,592.7
2023-03-06T00:29:00.153Z,592.5
2023-03-06T00:30:02.124Z,592.6
2023-03-06T00:31:03.950Z,592.3
2023-03-06T00:32:06.044Z,592.4
2023-03-06T00:33:07.999Z,592.5
2023-03-06T00:34:09.918Z,592.4
2023-03-06T00:35:11.767Z,592.2
2023-03-06T00:36:13.501Z,592.4
2023-03-06T00:37:15.459Z,592.2
2023-03-06T00:38:17.333Z,592.3
2023-03-06T00:39:19.167Z,592.3
2023-03-06T00:40:21.041Z,592.5
2023-03-06T00:41:22.871Z,592.6
2023-03-06T00:42:24.705Z,592.4
2023-03-06T00:43:26.570Z,592.5
2023-03-06T00:44:28.417Z,592.4
2023-03-06T00:45:30.800Z,592.6
2023-03-06T00:46:32.626Z,592.7
2023-03-06T00:47:34.442Z,592.6
2023-03-06T00:48:36.345Z,593
2023-03-06T00:49:40.838Z,592.8
2023-03-06T00:50:42.684Z,593.2
2023-03-06T00:51:44.540Z,593.1
2023-03-06T00:52:46.382Z,592.9
2023-03-06T00:53:48.163Z,593.1
2023-03-06T00:54:49.883Z,592.9
2023-03-06T00:55:51.729Z,593.2
2023-03-06T00:56:53.575Z,593.3
2023-03-06T00:57:55.540Z,593.1
2023-03-06T00:58:57.491Z,593.1
2023-03-06T00:59:59.333Z,593.2
2023-03-06T01:01:01.532Z,593.3
2023-03-06T01:02:03.844Z,593.1
2023-03-06T01:03:06.024Z,593.2
2023-03-06T01:04:07.879Z,592.9
2023-03-06T01:05:09.830Z,593
2023-03-06T01:06:11.540Z,593.1
2023-03-06T01:07:13.407Z,593
2023-03-06T01:08:15.264Z,593
2023-03-06T01:09:17.122Z,593.1
2023-03-06T01:10:19.056Z,593.2
2023-03-06T01:11:20.812Z,593.2
2023-03-06T01:12:24.202Z,593.6
2023-03-06T01:13:25.971Z,593.8
2023-03-06T01:14:27.735Z,594
2023-03-06T01:15:29.531Z,593.8
2023-03-06T01:16:31.692Z,593.8
2023-03-06T01:17:33.466Z,593.9
2023-03-06T01:18:35.295Z,593.4
2023-03-06T01:19:37.265Z,593.2
2023-03-06T01:20:39.096Z,593.5
2023-03-06T01:21:40.841Z,593
2023-03-06T01:22:42.602Z,593.3
2023-03-06T01:23:44.558Z,593.2
2023-03-06T01:24:46.402Z,593.1
2023-03-06T01:25:48.341Z,593.5
2023-03-06T01:26:50.186Z,593.4
2023-03-06T01:27:51.942Z,593.2
2023-03-06T01:28:53.829Z,593.3
2023-03-06T01:29:55.647Z,593.1
2023-03-06T01:30:57.593Z,593
2023-03-06T01:31:59.954Z,593.6
2023-03-06T01:33:01.770Z,593.2
2023-03-06T01:34:03.660Z,592.9
2023-03-06T01:35:05.522Z,593.3
2023-03-06T01:36:07.354Z,593.8
2023-03-06T01:37:09.107Z,593.5
2023-03-06T01:38:11.065Z,593.4
2023-03-06T01:39:12.927Z,593.6
2023-03-06T01:40:14.751Z,593.7
2023-03-06T01:41:16.716Z,593.8
2023-03-06T01:42:18.563Z,593.7
2023-03-06T01:43:20.302Z,593.6
2023-03-06T01:44:22.166Z,593.3
2023-03-06T01:45:24.009Z,593.6
2023-03-06T01:46:25.895Z,593.6
2023-03-06T01:47:30.702Z,593.2
2023-03-06T01:48:32.534Z,593.8
2023-03-06T01:49:34.383Z,593.5
2023-03-06T01:50:36.356Z,593.4
2023-03-06T01:51:38.188Z,593.7
2023-03-06T01:52:40.036Z,593.5
2023-03-06T01:53:41.886Z,593.9
2023-03-06T01:54:43.840Z,593.5
2023-03-06T01:55:45.587Z,594
2023-03-06T01:56:47.368Z,593.6
2023-03-06T01:57:49.279Z,593.8
2023-03-06T01:58:51.024Z,593.8
2023-03-06T01:59:53.007Z,593.5
2023-03-06T02:00:55.050Z,593.8
2023-03-06T02:01:57.061Z,593.7
2023-03-06T02:02:58.948Z,593.9
2023-03-06T02:04:00.795Z,593.6
2023-03-06T02:05:02.753Z,593.8
2023-03-06T02:06:04.574Z,594
2023-03-06T02:07:06.448Z,594.2
2023-03-06T02:08:08.318Z,593.6
2023-03-06T02:09:10.245Z,593.2
2023-03-06T02:10:12.102Z,593
2023-03-06T02:11:14.318Z,593.5
2023-03-06T02:12:16.211Z,594
2023-03-06T02:13:18.061Z,593.7
2023-03-06T02:14:19.909Z,593.4
2023-03-06T02:15:21.757Z,593.5
2023-03-06T02:16:23.741Z,593.7
2023-03-06T02:17:25.667Z,593.7
2023-03-06T02:18:27.523Z,593.2
2023-03-06T02:19:29.408Z,593.6
2023-03-06T02:20:31.315Z,593.4
2023-03-06T02:21:33.207Z,593.2
2023-03-06T02:22:35.130Z,593
2023-03-06T02:23:36.866Z,593.2
2023-03-06T02:24:38.819Z,593.2
2023-03-06T02:25:40.772Z,593.1
2023-03-06T02:26:42.596Z,593.3
2023-03-06T02:27:44.534Z,593.3
2023-03-06T02:28:46.536Z,592.7
2023-03-06T02:29:48.371Z,592.4
2023-03-06T02:30:50.557Z,592.4
2023-03-06T02:31:52.388Z,592
2023-03-06T02:32:54.133Z,591.7
2023-03-06T02:33:56.089Z,591.8
2023-03-06T02:34:57.942Z,591.7
2023-03-06T02:36:00.206Z,592.4
2023-03-06T02:37:02.082Z,592.1
2023-03-06T02:38:03.890Z,592.1
2023-03-06T02:39:05.747Z,592
2023-03-06T02:40:07.622Z,591.8
2023-03-06T02:41:09.552Z,591.6
2023-03-06T02:42:11.340Z,591.6
2023-03-06T02:43:13.151Z,591.4
2023-03-06T02:44:14.998Z,591.2
2023-03-06T02:45:16.840Z,591.2
2023-03-06T02:46:18.838Z,591.1
2023-03-06T02:47:20.848Z,591.2
2023-03-06T02:48:22.632Z,591.4
2023-03-06T02:49:27.105Z,591.2
2023-03-06T02:50:28.954Z,591.3
2023-03-06T02:51:30.804Z,591.2
2023-03-06T02:52:32.749Z,591.1
2023-03-06T02:53:34.624Z,591.2
2023-03-06T02:54:36.350Z,591
2023-03-06T02:55:38.210Z,590.9
2023-03-06T02:56:40.064Z,590.6
2023-03-06T02:57:41.913Z,590.6
2023-03-06T02:58:43.766Z,590.7
2023-03-06T02:59:45.606Z,590.6
2023-03-06T03:00:47.460Z,590.6
2023-03-06T03:01:49.750Z,590.8
2023-03-06T03:02:51.675Z,591.2
2023-03-06T03:03:53.623Z,590.9
2023-03-06T03:04:55.933Z,590.8
2023-03-06T03:05:57.728Z,590.2
2023-03-06T03:06:59.796Z,590.4
2023-03-06T03:08:01.858Z,590.3
2023-03-06T03:09:03.808Z,590.6
2023-03-06T03:10:05.654Z,590.7
2023-03-06T03:11:07.488Z,590.5
2023-03-06T03:12:09.337Z,590.7
2023-03-06T03:13:11.300Z,590.9
2023-03-06T03:14:13.138Z,591
2023-03-06T03:15:14.987Z,591.1
2023-03-06T03:16:17.222Z,591.2
2023-03-06T03:17:19.098Z,590.7
2023-03-06T03:18:21.060Z,591.2
2023-03-06T03:19:22.902Z,590.7
2023-03-06T03:20:24.654Z,591.1
2023-03-06T03:21:26.508Z,590.7
2023-03-06T03:22:31.113Z,590.3
2023-03-06T03:23:32.995Z,590.3
2023-03-06T03:24:35.040Z,590.3
2023-03-06T03:25:36.796Z,590.4
2023-03-06T03:26:38.718Z,590.9
2023-03-06T03:27:40.579Z,590.6
2023-03-06T03:28:42.392Z,590.5
2023-03-06T03:29:44.322Z,590.5
2023-03-06T03:30:46.359Z,590.5
2023-03-06T03:31:48.318Z,590.7
2023-03-06T03:32:50.135Z,590.6
2023-03-06T03:33:51.984Z,590.5
2023-03-06T03:34:53.935Z,589.9
2023-03-06T03:35:55.945Z,590.1
2023-03-06T03:36:57.674Z,590.2
2023-03-06T03:37:59.457Z,590.3
2023-03-06T03:39:01.363Z,590.7
2023-03-06T03:40:03.295Z,590.5
2023-03-06T03:41:05.134Z,590.5
2023-03-06T03:42:06.900Z,590.2
2023-03-06T03:43:08.742Z,590
2023-03-06T03:44:10.694Z,589.8
2023-03-06T03:45:12.639Z,589.6
2023-03-06T03:46:14.508Z,589.4
2023-03-06T03:47:16.344Z,589.6
2023-03-06T03:48:18.133Z,589.5
2023-03-06T03:49:19.947Z,589.7
2023-03-06T03:50:21.891Z,589.6
2023-03-06T03:51:23.741Z,589.7
2023-03-06T03:52:25.597Z,589.3
2023-03-06T03:53:30.007Z,589.5
2023-03-06T03:54:31.873Z,589.7
2023-03-06T03:55:33.704Z,589
2023-03-06T03:56:35.507Z,589.5
2023-03-06T03:57:37.396Z,589.7
2023-03-06T03:58:39.254Z,589.3
2023-03-06T03:59:40.992Z,589.4
2023-03-06T04:00:42.848Z,589.6
2023-03-06T04:01:44.837Z,589.1
2023-03-06T04:02:46.661Z,588.8
2023-03-06T04:03:48.507Z,588.7
2023-03-06T04:04:50.483Z,588.3
2023-03-06T04:05:52.204Z,588.1
2023-03-06T04:06:54.156Z,588.3
2023-03-06T04:07:56.010Z,588.5
2023-03-06T04:08:57.855Z,588.4
2023-03-06T04:09:59.793Z,588.5
2023-03-06T04:11:01.749Z,588.4
2023-03-06T04:12:03.615Z,588.5
2023-03-06T04:13:05.453Z,588.2
2023-03-06T04:14:07.311Z,588.7
2023-03-06T04:15:09.151Z,588.2
2023-03-06T04:16:11.146Z,588.3
2023-03-06T04:17:13.054Z,588.2
2023-03-06T04:18:14.841Z,588.2
2023-03-06T04:19:16.674Z,588.1
2023-03-06T04:20:18.501Z,588.2
2023-03-06T04:21:20.456Z,588.5
2023-03-06T04:22:22.312Z,588.3
2023-03-06T04:23:24.164Z,588
2023-03-06T04:24:26.019Z,587.9
2023-03-06T04:25:27.889Z,587.8
2023-03-06T04:26:29.918Z,587.7
2023-03-06T04:27:31.701Z,587.9
2023-03-06T04:28:33.523Z,587.8
2023-03-06T04:29:35.384Z,588.2
2023-03-06T04:30:37.418Z,588.2
2023-03-06T04:31:39.609Z,588
2023-03-06T04:32:41.910Z,587.9
2023-03-06T04:33:43.890Z,587.9
2023-03-06T04:34:45.850Z,587.7
2023-03-06T04:35:47.947Z,587.4
2023-03-06T04:36:49.650Z,587.3
2023-03-06T04:37:51.394Z,587.3
2023-03-06T04:38:53.470Z,587.7
2023-03-06T04:39:55.411Z,587.7
2023-03-06T04:40:57.585Z,587.4
2023-03-06T04:41:59.913Z,587.1
2023-03-06T04:43:01.915Z,587
2023-03-06T04:44:03.821Z,586.8
2023-03-06T04:45:05.773Z,587.4
2023-03-06T04:46:08.019Z,586.9
2023-03-06T04:47:09.813Z,587.1
2023-03-06T04:48:11.614Z,587.2
2023-03-06T04:49:13.523Z,587
2023-03-06T04:50:15.230Z,587
2023-03-06T04:51:17.093Z,586.9
2023-03-06T04:52:19.046Z,586.8
2023-03-06T04:53:20.748Z,586.6
2023-03-06T04:54:22.645Z,586.3
2023-03-06T04:55:25.149Z,586.5
2023-03-06T04:56:27.154Z,587
2023-03-06T04:57:29.101Z,587.2
2023-03-06T04:58:31.044Z,587.3
2023-03-06T04:59:32.915Z,587
2023-03-06T05:00:34.864Z,586.7
2023-03-06T05:01:36.715Z,586.4
2023-03-06T05:02:38.674Z,586.8
2023-03-06T05:03:40.829Z,586.8
2023-03-06T05:04:42.572Z,586.4
2023-03-06T05:05:44.425Z,586.3
2023-03-06T05:06:46.265Z,586.5
2023-03-06T05:07:48.012Z,586.4
2023-03-06T05:08:49.978Z,586.6
2023-03-06T05:09:51.812Z,586.5
2023-03-06T05:10:53.764Z,586.3
2023-03-06T05:11:55.647Z,586.3
2023-03-06T05:12:57.536Z,586.4
2023-03-06T05:13:59.332Z,586.8
2023-03-06T05:15:01.163Z,587.2
2023-03-06T05:16:03.170Z,587
2023-03-06T05:17:05.179Z,586.5
2023-03-06T05:18:07.021Z,585.9
2023-03-06T05:19:08.892Z,586
2023-03-06T05:20:10.838Z,585.9
2023-03-06T05:21:12.675Z,585.8
2023-03-06T05:22:14.529Z,585.8
2023-03-06T05:23:16.485Z,586
2023-03-06T05:24:18.400Z,586
2023-03-06T05:25:20.306Z,586
2023-03-06T05:26:22.072Z,585.5
2023-03-06T05:27:23.972Z,585.4
2023-03-06T05:28:25.729Z,585.5
2023-03-06T05:29:28.504Z,585.5
2023-03-06T05:30:30.450Z,585.2
2023-03-06T05:31:32.585Z,585.6
2023-03-06T05:32:36.655Z,585.7
2023-03-06T05:33:38.573Z,585.7
2023-03-06T05:34:40.518Z,585.4
2023-03-06T05:35:42.574Z,585.1
2023-03-06T05:36:44.522Z,584.8
2023-03-06T05:37:46.985Z,584.9
2023-03-06T05:38:49.150Z,584.8
2023-03-06T05:39:51.127Z,585.5
2023-03-06T05:40:52.963Z,585.6
2023-03-06T05:41:54.827Z,585.8
2023-03-06T05:42:56.685Z,586.1
2023-03-06T05:43:58.605Z,586.2
2023-03-06T05:45:00.356Z,586.1
2023-03-06T05:46:02.640Z,585.7
2023-03-06T05:47:04.403Z,585.7
2023-03-06T05:48:06.107Z,585.9
2023-03-06T05:49:08.058Z,585.7
2023-03-06T05:50:09.799Z,586
2023-03-06T05:51:11.550Z,586.1
2023-03-06T05:52:13.410Z,585.3
2023-03-06T05:53:15.353Z,585.5
2023-03-06T05:54:17.305Z,585.6
2023-03-06T05:55:19.062Z,585.9
2023-03-06T05:56:20.814Z,585.8
2023-03-06T05:57:25.247Z,585.9
2023-03-06T05:58:27.143Z,585.3
2023-03-06T05:59:29.105Z,585.1
2023-03-06T06:00:30.971Z,585.3
2023-03-06T06:01:32.820Z,584.8
2023-03-06T06:02:34.891Z,584.8
2023-03-06T06:03:37.042Z,584.8
2023-03-06T06:04:38.885Z,584.7
2023-03-06T06:05:40.726Z,584.4
2023-03-06T06:06:42.445Z,584.3
2023-03-06T06:07:44.226Z,583.8
2023-03-06T06:08:46.069Z,583.9
2023-03-06T06:09:47.934Z,583.5
2023-03-06T06:10:53.971Z,583.2
2023-03-06T06:11:55.828Z,583.2
2023-03-06T06:12:57.672Z,583.4
2023-03-06T06:13:59.673Z,583.1
2023-03-06T06:15:01.590Z,583.2
2023-03-06T06:16:03.675Z,583
2023-03-06T06:17:05.495Z,583.4
2023-03-06T06:18:07.337Z,583.5
2023-03-06T06:19:09.189Z,583.6
2023-03-06T06:20:11.013Z,583.3
2023-03-06T06:21:12.872Z,583.5
2023-03-06T06:22:14.660Z,583
2023-03-06T06:23:16.482Z,583
2023-03-06T06:24:18.333Z,582.8
2023-03-06T06:25:20.193Z,582.6
2023-03-06T06:26:21.913Z,582.6
2023-03-06T06:27:23.684Z,582.6
2023-03-06T06:28:25.636Z,583
2023-03-06T06:29:27.600Z,582.8
2023-03-06T06:30:29.535Z,583
2023-03-06T06:31:31.719Z,582.5
2023-03-06T06:32:33.793Z,582.3
2023-03-06T06:33:35.555Z,582.4
2023-03-06T06:34:37.179Z,582.1
2023-03-06T06:35:39.196Z,582.1
2023-03-06T06:36:41.043Z,581.9
2023-03-06T06:37:42.784Z,581.8
2023-03-06T06:38:44.641Z,581.9
2023-03-06T06:39:46.486Z,581.8
2023-03-06T06:42:26.310Z,581.9
2023-03-06T06:43:30.035Z,582.6
2023-03-06T06:44:32.005Z,582.2
2023-03-06T06:45:33.873Z,581.8
2023-03-06T06:47:26.460Z,582
2023-03-06T06:48:28.433Z,581.8
2023-03-06T06:49:30.270Z,581.5
2023-03-06T06:50:32.125Z,581.2
2023-03-06T06:51:34.051Z,581.5
2023-03-06T06:52:35.944Z,581
2023-03-06T06:53:37.634Z,580.9
2023-03-06T06:54:39.422Z,580.7
2023-03-06T06:55:41.279Z,580.4
2023-03-06T06:56:43.126Z,580.9
2023-03-06T06:57:44.978Z,580.8
2023-03-06T06:58:46.816Z,580.7
2023-03-06T06:59:48.705Z,581
2023-03-06T07:00:50.729Z,581
2023-03-06T07:01:53.131Z,581.5
2023-03-06T07:02:55.185Z,581.2
2023-03-06T07:03:57.099Z,581.3
2023-03-06T07:05:06.208Z,581.6
2023-03-06T07:06:08.165Z,581.2
2023-03-06T07:07:09.923Z,581.2
2023-03-06T07:08:11.772Z,581.2
2023-03-06T07:09:13.612Z,581.1
2023-03-06T07:10:15.395Z,581
2023-03-06T07:11:17.211Z,581.3
2023-03-06T07:12:18.983Z,581.1
2023-03-06T07:13:20.747Z,581.1
2023-03-06T07:14:22.564Z,581.1
2023-03-06T07:15:24.544Z,581.1
2023-03-06T07:16:26.461Z,581
2023-03-06T07:17:28.253Z,581.5
2023-03-06T07:18:29.956Z,581.5
2023-03-06T07:19:31.805Z,581.3
2023-03-06T07:20:33.665Z,581.3
2023-03-06T07:21:35.615Z,581.5
2023-03-06T07:22:52.415Z,581.2
2023-03-06T07:23:54.263Z,580.9
2023-03-06T07:24:56.129Z,580.6
2023-03-06T07:25:58.073Z,580.9
2023-03-06T07:26:59.935Z,580.6
2023-03-06T07:28:02.537Z,580.6
2023-03-06T07:29:04.385Z,580.7
2023-03-06T07:30:06.204Z,580.9
2023-03-06T07:31:08.415Z,580.6
2023-03-06T07:32:10.525Z,580.4
2023-03-06T07:33:12.280Z,580.4
2023-03-06T07:34:13.996Z,580.9
2023-03-06T07:35:21.476Z,581
2023-03-06T07:36:23.322Z,581.2
2023-03-06T07:37:25.007Z,580.7
2023-03-06T07:38:26.674Z,580.6
2023-03-06T07:39:28.667Z,580.6
2023-03-06T07:40:30.501Z,580.6
2023-03-06T07:41:32.445Z,580.6
2023-03-06T07:42:34.331Z,580.4
2023-03-06T07:43:36.176Z,580.3
2023-03-06T07:44:38.129Z,580.2
2023-03-06T07:45:40.388Z,580.2
2023-03-06T07:46:42.620Z,580.3
2023-03-06T07:47:44.425Z,579.9
2023-03-06T07:48:46.155Z,580.1
2023-03-06T07:49:47.959Z,580.2
2023-03-06T07:50:49.851Z,580.2
2023-03-06T07:51:51.698Z,580
2023-03-06T07:52:53.459Z,580.4
2023-03-06T07:53:55.229Z,579.9
2023-03-06T07:54:56.919Z,580
2023-03-06T07:55:58.692Z,580.4
2023-03-06T07:57:00.546Z,579.9
2023-03-06T07:58:02.294Z,579.6
2023-03-06T07:59:04.184Z,579.6
2023-03-06T08:00:05.827Z,579.6
2023-03-06T08:01:07.637Z,579.8
2023-03-06T08:02:09.518Z,580
2023-03-06T08:03:11.687Z,579.6
2023-03-06T08:04:14.079Z,579.4
2023-03-06T08:05:15.962Z,579.5
2023-03-06T08:06:17.808Z,579.3
2023-03-06T08:07:19.659Z,579.6
2023-03-06T08:08:21.309Z,579.9
2023-03-06T08:09:23.050Z,580.1
2023-03-06T08:10:24.842Z,579.5
2023-03-06T08:11:26.600Z,579.8
2023-03-06T08:12:28.327Z,579.3
2023-03-06T08:13:30.143Z,579.6
2023-03-06T08:14:31.864Z,580
2023-03-06T08:15:33.660Z,580
2023-03-06T08:16:35.725Z,580.3
2023-03-06T08:17:37.762Z,580.3
2023-03-06T08:18:39.738Z,580
2023-03-06T08:19:41.570Z,580.3
2023-03-06T08:20:43.401Z,580.4
2023-03-06T08:21:45.251Z,580.4
2023-03-06T08:22:47.034Z,580.1
2023-03-06T08:23:48.846Z,580
2023-03-06T08:24:50.697Z,580
2023-03-06T08:25:52.546Z,580.1
2023-03-06T08:26:54.294Z,580.3
2023-03-06T08:27:56.146Z,580.1
2023-03-06T08:28:57.990Z,579.9
2023-03-06T08:29:59.737Z,580.2
2023-03-06T08:31:01.489Z,580
2023-03-06T08:32:03.717Z,580.1
2023-03-06T08:33:05.521Z,580.2
2023-03-06T08:34:07.354Z,580.4
2023-03-06T08:35:09.150Z,580.7
2023-03-06T08:36:11.052Z,580.6
2023-03-06T08:37:13.004Z,580.6
2023-03-06T08:38:14.783Z,580.7
2023-03-06T08:39:16.690Z,580.4
2023-03-06T08:40:18.563Z,580.6
2023-03-06T08:41:21.024Z,580.8
2023-03-06T08:42:25.578Z,581.1
2023-03-06T08:43:27.366Z,581
2023-03-06T08:44:29.427Z,580.8
2023-03-06T08:45:31.496Z,580.7
2023-03-06T08:46:33.333Z,580.5
2023-03-06T08:47:35.173Z,580.1
2023-03-06T08:48:37.267Z,580.8
2023-03-06T08:49:39.091Z,580.8
2023-03-06T08:50:40.764Z,580.3
2023-03-06T08:51:42.390Z,580.4
2023-03-06T08:52:44.095Z,580.5
2023-03-06T08:53:45.974Z,580.3
2023-03-06T08:54:47.826Z,580.4
2023-03-06T08:55:49.775Z,580.5
2023-03-06T08:56:51.619Z,580
2023-03-06T08:57:53.471Z,580.2
2023-03-06T08:58:55.268Z,580.9
2023-03-06T08:59:57.092Z,580.6
2023-03-06T09:00:59.342Z,580.8
2023-03-06T09:02:01.545Z,581
2023-03-06T09:03:03.459Z,581.1
2023-03-06T09:04:05.338Z,581
2023-03-06T09:05:07.468Z,581.1
2023-03-06T09:06:09.314Z,581.1
2023-03-06T09:07:11.118Z,581.3
2023-03-06T09:08:12.991Z,581
2023-03-06T09:09:14.954Z,581.3
2023-03-06T09:10:17.185Z,581.4
2023-03-06T09:11:19.266Z,581.3
2023-03-06T09:12:21.319Z,581.1
2023-03-06T09:13:23.284Z,581.4
2023-03-06T09:14:25.057Z,581.6
2023-03-06T09:15:27.082Z,581.5
2023-03-06T09:16:28.826Z,581.3
2023-03-06T09:17:30.783Z,580.8
2023-03-06T09:18:32.735Z,580.5
2023-03-06T09:19:34.585Z,580.8
2023-03-06T09:20:36.434Z,580.9
2023-03-06T09:21:38.477Z,581.1
2023-03-06T09:22:40.327Z,581.5
2023-03-06T09:23:42.297Z,581.1
2023-03-06T09:24:44.065Z,581
2023-03-06T09:25:45.879Z,581.2
2023-03-06T09:26:52.138Z,581.4
2023-03-06T09:28:12.627Z,581.1
2023-03-06T09:29:14.372Z,581.2
2023-03-06T09:30:16.145Z,581.6
2023-03-06T09:31:18.430Z,581.7
2023-03-06T09:32:20.489Z,581.8
2023-03-06T09:33:22.402Z,581.6
2023-03-06T09:34:24.248Z,581.6
2023-03-06T09:35:26.261Z,582.1
2023-03-06T09:36:28.021Z,582.1
2023-03-06T09:37:29.891Z,582.3
2023-03-06T09:38:31.738Z,582.4
2023-03-06T09:39:33.598Z,582.3
2023-03-06T09:40:35.424Z,582.2
2023-03-06T09:41:37.166Z,581.7
2023-03-06T09:42:38.913Z,581.7
2023-03-06T09:43:40.778Z,581.6
2023-03-06T09:44:42.526Z,582
2023-03-06T09:45:44.618Z,582
2023-03-06T09:46:46.450Z,582.2
2023-03-06T09:47:48.398Z,582.3
2023-03-06T09:48:50.241Z,582.3
2023-03-06T09:49:51.992Z,582.4
2023-03-06T09:50:54.168Z,582.3
2023-03-06T09:51:55.928Z,582.5
2023-03-06T09:52:57.746Z,582.3
2023-03-06T09:53:59.539Z,582.4
2023-03-06T09:55:01.283Z,582.2
2023-03-06T09:56:02.983Z,582.6
2023-03-06T09:57:04.827Z,582.8
2023-03-06T09:58:08.220Z,582.5
2023-03-06T09:59:10.004Z,582.3
2023-03-06T10:00:11.921Z,582.6
2023-03-06T10:01:13.775Z,583
2023-03-06T10:02:16.232Z,583.2
2023-03-06T10:03:18.917Z,583.4
2023-03-06T10:04:20.861Z,584
2023-03-06T10:05:22.922Z,584.1
2023-03-06T10:06:24.780Z,583.9
2023-03-06T10:07:26.605Z,584.2
2023-03-06T10:08:28.465Z,584.1
2023-03-06T10:09:30.314Z,584.3
2023-03-06T10:10:32.009Z,584
2023-03-06T10:11:33.801Z,584.2
2023-03-06T10:12:35.547Z,584.4
2023-03-06T10:13:37.451Z,584.3
2023-03-06T10:14:39.254Z,584.4
2023-03-06T10:15:41.345Z,584.6
2023-03-06T10:16:43.164Z,584.8
2023-03-06T10:17:45.028Z,584.7
2023-03-06T10:18:46.876Z,584.9
2023-03-06T10:19:48.707Z,585.1
2023-03-06T10:20:50.569Z,584.9
2023-03-06T10:21:52.535Z,585.4
2023-03-06T10:23:05.721Z,585.5
2023-03-06T10:24:07.583Z,585.1
2023-03-06T10:25:09.513Z,585.9
2023-03-06T10:26:11.599Z,585.6
2023-03-06T10:27:13.781Z,585.4
2023-03-06T10:28:15.605Z,585.5
2023-03-06T10:29:17.367Z,586
2023-03-06T10:30:19.168Z,586.3
2023-03-06T10:31:21.186Z,586.3
2023-03-06T10:32:23.351Z,586.8
2023-03-06T10:33:25.123Z,586.7
2023-03-06T10:34:27.034Z,586.9
2023-03-06T10:35:31.561Z,586.8
2023-03-06T10:36:33.362Z,587
2023-03-06T10:37:35.169Z,586.7
2023-03-06T10:38:36.821Z,586.8
2023-03-06T10:39:38.473Z,587
2023-03-06T10:40:40.354Z,586.8
2023-03-06T10:41:42.970Z,587.2
2023-03-06T10:42:45.510Z,587.6
2023-03-06T10:43:47.245Z,587.6
2023-03-06T10:44:49.094Z,587.5
2023-03-06T10:45:51.040Z,587.8
2023-03-06T10:46:52.807Z,588.2
2023-03-06T10:47:54.426Z,587.9
2023-03-06T10:48:56.201Z,588.1
2023-03-06T10:49:58.047Z,587.9
2023-03-06T10:51:18.894Z,588.1
2023-03-06T10:52:20.830Z,588.7
2023-03-06T10:53:22.696Z,588.8
2023-03-06T10:54:24.588Z,589
2023-03-06T10:55:26.440Z,589.1
2023-03-06T10:56:28.286Z,589.3
2023-03-06T10:57:30.136Z,589.3
2023-03-06T10:58:31.886Z,589.7
2023-03-06T10:59:33.822Z,590
2023-03-06T11:00:35.816Z,589.9
2023-03-06T11:01:37.885Z,590.5
2023-03-06T11:02:39.907Z,590.5
2023-03-06T11:03:41.839Z,590.5
2023-03-06T11:04:43.774Z,591
2023-03-06T11:05:45.581Z,591.3
2023-03-06T11:06:47.334Z,591.2
2023-03-06T11:07:49.084Z,591.1
2023-03-06T11:08:51.018Z,591.3
2023-03-06T11:09:52.839Z,591.6
2023-03-06T11:10:54.611Z,591.8
2023-03-06T11:11:56.442Z,591.8
2023-03-06T11:12:58.312Z,591.9
2023-03-06T11:14:00.145Z,591.9
2023-03-06T11:15:02.298Z,592.1
2023-03-06T11:16:04.390Z,591.9
2023-03-06T11:17:06.308Z,592.1
2023-03-06T11:18:08.259Z,592.4
2023-03-06T11:19:10.019Z,592.4
2023-03-06T11:20:11.753Z,592.6
2023-03-06T11:21:13.606Z,592.5
2023-03-06T11:22:15.667Z,592.7
2023-03-06T11:23:17.431Z,593.1
2023-03-06T11:24:19.442Z,592.8
2023-03-06T11:25:21.414Z,593.2
2023-03-06T11:26:23.274Z,593.4
2023-03-06T11:27:25.009Z,593.3
2023-03-06T11:28:26.799Z,593.5
2023-03-06T11:29:34.281Z,593.2
2023-03-06T11:30:36.506Z,593.4
2023-03-06T11:31:38.691Z,593.6
2023-03-06T11:32:40.768Z,593.5
2023-03-06T11:33:42.669Z,593.8
2023-03-06T11:34:44.331Z,594.1
2023-03-06T11:35:46.372Z,594.3
2023-03-06T11:36:48.219Z,594.2
2023-03-06T11:37:50.167Z,594.3
2023-03-06T11:38:52.213Z,594.6
2023-03-06T11:39:54.085Z,594.9
2023-03-06T11:40:55.951Z,594.7
2023-03-06T11:41:57.663Z,594.8
2023-03-06T11:42:59.518Z,595.3
2023-03-06T11:44:01.367Z,595.3
2023-03-06T11:45:04.281Z,595.6
2023-03-06T11:46:06.119Z,595.5
2023-03-06T11:47:07.954Z,596.7
2023-03-06T11:48:09.790Z,596.5
2023-03-06T11:49:11.582Z,596.9
2023-03-06T11:50:13.359Z,596.9
2023-03-06T11:51:15.240Z,597.4
2023-03-06T11:52:17.186Z,597.4
2023-03-06T11:53:19.147Z,597.4
2023-03-06T11:54:20.990Z,597.6
2023-03-06T11:55:22.877Z,597.9
2023-03-06T11:56:24.675Z,597.9
2023-03-06T11:57:26.487Z,598.3
2023-03-06T11:58:28.388Z,597.9
2023-03-06T11:59:30.198Z,598.4
2023-03-06T12:00:31.990Z,598.1
2023-03-06T12:01:33.737Z,598.1
2023-03-06T12:02:35.585Z,598.4
2023-03-06T12:03:37.547Z,598.5
2023-03-06T12:04:39.396Z,598.6
2023-03-06T12:05:41.571Z,598.6
2023-03-06T12:06:43.405Z,598.9
2023-03-06T12:07:45.266Z,598.9
2023-03-06T12:08:46.998Z,598.9
2023-03-06T12:09:48.792Z,599
2023-03-06T12:10:52.869Z,599
2023-03-06T12:11:54.704Z,599
2023-03-06T12:12:56.550Z,599.2
2023-03-06T12:14:04.452Z,599.3
2023-03-06T12:15:06.290Z,599.7
2023-03-06T12:16:08.475Z,599.7
2023-03-06T12:17:10.416Z,599.6
2023-03-06T12:18:12.182Z,599.9
2023-03-06T12:19:14.007Z,599.9
2023-03-06T12:20:16.185Z,599.7
2023-03-06T12:21:17.899Z,599.7
2023-03-06T12:22:19.697Z,600.1
2023-03-06T12:23:21.508Z,600.3
2023-03-06T12:24:23.283Z,600
2023-03-06T12:25:25.097Z,600
2023-03-06T12:26:27.090Z,600
2023-03-06T12:27:28.876Z,600.2
2023-03-06T12:28:30.673Z,600.3
2023-03-06T12:29:32.500Z,600.7
2023-03-06T12:30:34.193Z,600.7
2023-03-06T12:31:36.241Z,600.6
2023-03-06T12:32:38.386Z,600.7
2023-03-06T12:33:40.199Z,601.1
2023-03-06T12:34:42.048Z,601.2
2023-03-06T12:35:44.236Z,600.9
2023-03-06T12:36:46.060Z,600.7
2023-03-06T12:37:47.806Z,600.6
2023-03-06T12:38:49.664Z,600.9
2023-03-06T12:39:51.917Z,601
2023-03-06T12:40:53.877Z,601.2
2023-03-06T12:41:55.756Z,601.2
2023-03-06T12:42:57.577Z,601.3
2023-03-06T12:43:59.421Z,601.6
2023-03-06T12:45:01.498Z,601.6
2023-03-06T12:46:03.684Z,601.2
2023-03-06T12:47:05.471Z,601.2
2023-03-06T12:48:07.227Z,600.6
2023-03-06T12:49:09.046Z,600.6
2023-03-06T12:50:10.938Z,600.6
2023-03-06T12:51:12.784Z,600.9
2023-03-06T12:52:30.658Z,601.5
2023-03-06T12:53:32.570Z,601.9
2023-03-06T12:54:34.640Z,601.9
2023-03-06T12:55:36.479Z,602.1
2023-03-06T12:56:38.159Z,602.2
2023-03-06T12:57:40.001Z,602.1
2023-03-06T12:58:42.020Z,602.4
2023-03-06T12:59:43.864Z,601.9
2023-03-06T13:01:04.086Z,602.1
2023-03-06T13:02:06.498Z,602.5
2023-03-06T13:03:08.305Z,602.9
2023-03-06T13:04:10.112Z,602.8
2023-03-06T13:05:12.166Z,603
2023-03-06T13:06:14.255Z,603.5
2023-03-06T13:07:16.072Z,603.3
2023-03-06T13:08:17.916Z,603.6
2023-03-06T13:09:19.782Z,603.7
2023-03-06T13:10:21.616Z,603.6
2023-03-06T13:11:23.473Z,604.1
2023-03-06T13:12:25.323Z,604
2023-03-06T13:13:27.279Z,604.3
2023-03-06T13:14:29.261Z,603.7
2023-03-06T13:15:31.189Z,603.4
2023-03-06T13:16:33.216Z,603.7
2023-03-06T13:17:34.981Z,603.9
2023-03-06T13:18:36.829Z,603.8
2023-03-06T13:19:38.689Z,604.1
2023-03-06T13:20:40.469Z,604.8
2023-03-06T13:21:42.236Z,604.9
2023-03-06T13:22:44.126Z,604.6
2023-03-06T13:23:45.914Z,604.4
2023-03-06T13:25:08.433Z,604.3
2023-03-06T13:26:10.359Z,604.6
2023-03-06T13:27:12.212Z,604.9